createdAt,value
2022-08-05T00:01:00.918Z,14
2022-08-05T00:02:53.534Z,14
2022-08-05T00:03:56.877Z,14
2022-08-05T00:05:05.597Z,15
2022-08-05T00:07:59.570Z,15
2022-08-05T00:09:04.684Z,14
2022-08-05T00:10:21.067Z,14
2022-08-05T00:11:30.479Z,14
2022-08-05T00:13:02.701Z,14
2022-08-05T00:14:12.139Z,14
2022-08-05T00:15:54.697Z,14
2022-08-05T00:17:02.971Z,13
2022-08-05T00:18:22.741Z,13
2022-08-05T00:19:32.955Z,14
2022-08-05T00:21:03.865Z,15
2022-08-05T00:22:11.166Z,15
2022-08-05T00:23:13.331Z,15
2022-08-05T00:24:16.321Z,14
2022-08-05T00:25:41.617Z,14
2022-08-05T00:26:50.959Z,13
2022-08-05T00:27:54.586Z,13
2022-08-05T00:28:57.740Z,13
2022-08-05T00:29:58.730Z,14
2022-08-05T00:31:04.702Z,14
2022-08-05T00:32:12.688Z,14
2022-08-05T00:34:43.222Z,14
2022-08-05T00:36:15.357Z,14
2022-08-05T00:38:17.385Z,13
2022-08-05T00:39:36.913Z,14
2022-08-05T00:41:00.291Z,14
2022-08-05T00:42:02.254Z,13
2022-08-05T00:43:07.544Z,14
2022-08-05T00:44:17.141Z,14
2022-08-05T00:45:24.937Z,13
2022-08-05T00:46:47.849Z,14
2022-08-05T00:48:12.226Z,14
2022-08-05T00:49:14.115Z,14
2022-08-05T00:50:20.855Z,15
2022-08-05T00:51:50.205Z,14
2022-08-05T00:52:57.615Z,14
2022-08-05T00:54:09.680Z,14
2022-08-05T00:55:13.329Z,13
2022-08-05T00:56:22.662Z,14
2022-08-05T00:57:31.674Z,14
2022-08-05T00:59:00.581Z,14
2022-08-05T01:00:11.093Z,14
2022-08-05T01:01:24.872Z,14
2022-08-05T01:02:53.431Z,14
2022-08-05T01:03:54.927Z,15
2022-08-05T01:04:55.931Z,15
2022-08-05T01:05:57.769Z,14
2022-08-05T01:07:00.949Z,15
2022-08-05T01:08:30.023Z,15
2022-08-05T01:09:55.431Z,15
2022-08-05T01:10:57.917Z,16
2022-08-05T01:12:04.624Z,15
2022-08-05T01:13:22.342Z,15
2022-08-05T01:15:03.824Z,14
2022-08-05T01:16:47.961Z,14
2022-08-05T01:17:53.576Z,14
2022-08-05T01:18:56.263Z,14
2022-08-05T01:20:01.250Z,14
2022-08-05T01:21:05.201Z,14
2022-08-05T01:22:06.455Z,14
2022-08-05T01:23:34.686Z,14
2022-08-05T01:24:38.604Z,14
2022-08-05T01:25:41.453Z,14
2022-08-05T01:26:54.709Z,13
2022-08-05T01:27:56.029Z,13
2022-08-05T01:28:58.289Z,13
2022-08-05T01:30:12.383Z,13
2022-08-05T01:31:42.527Z,13
2022-08-05T01:32:51.488Z,13
2022-08-05T01:33:53.731Z,13
2022-08-05T01:34:56.962Z,13
2022-08-05T01:35:59.425Z,14
2022-08-05T01:37:04.774Z,14
2022-08-05T01:38:05.779Z,13
2022-08-05T01:39:07.094Z,14
2022-08-05T01:40:10.470Z,13
2022-08-05T01:41:11.704Z,13
2022-08-05T01:42:21.319Z,14
2022-08-05T01:43:24.100Z,14
2022-08-05T01:44:34.370Z,14
2022-08-05T01:45:42.785Z,14
2022-08-05T01:47:07.101Z,13
2022-08-05T01:48:14.431Z,13
2022-08-05T01:49:23.507Z,13
2022-08-05T01:51:12.256Z,13
2022-08-05T01:52:17.397Z,14
2022-08-05T01:53:54.451Z,14
2022-08-05T01:55:04.326Z,15
2022-08-05T01:56:09.159Z,15
2022-08-05T01:58:09.167Z,15
2022-08-05T01:59:17.234Z,15
2022-08-05T02:00:18.280Z,15
2022-08-05T02:01:23.285Z,15
2022-08-05T02:02:46.318Z,14
2022-08-05T02:03:57.093Z,14
2022-08-05T02:04:59.734Z,14
2022-08-05T02:06:12.777Z,14
2022-08-05T02:07:47.270Z,14
2022-08-05T02:09:03.523Z,14
2022-08-05T02:10:07.932Z,14
2022-08-05T02:11:23.565Z,15
2022-08-05T02:12:42.308Z,15
2022-08-05T02:13:53.544Z,13
2022-08-05T02:14:58.831Z,14
2022-08-05T02:16:06.833Z,13
2022-08-05T02:17:29.709Z,13
2022-08-05T02:19:47.487Z,14
2022-08-05T02:20:49.819Z,14
2022-08-05T02:22:00.354Z,14
2022-08-05T02:23:02.060Z,14
2022-08-05T02:24:09.815Z,14
2022-08-05T02:25:23.742Z,14
2022-08-05T02:26:53.773Z,14
2022-08-05T02:27:58.687Z,14
2022-08-05T02:29:04.470Z,14
2022-08-05T02:30:24.394Z,14
2022-08-05T02:31:34.534Z,14
2022-08-05T02:32:36.125Z,14
2022-08-05T02:33:41.776Z,13
2022-08-05T02:34:44.391Z,13
2022-08-05T02:36:19.418Z,13
2022-08-05T02:37:33.264Z,13
2022-08-05T02:38:38.468Z,13
2022-08-05T02:39:54.347Z,13
2022-08-05T02:40:56.158Z,13
2022-08-05T02:42:22.537Z,13
2022-08-05T02:43:37.352Z,13
2022-08-05T02:45:17.632Z,12
2022-08-05T02:46:27.537Z,12
2022-08-05T02:47:58.800Z,12
2022-08-05T02:49:16.821Z,12
2022-08-05T02:50:22.852Z,12
2022-08-05T02:51:28.351Z,13
2022-08-05T02:53:05.586Z,13
2022-08-05T02:54:34.576Z,13
2022-08-05T02:56:00.218Z,12
2022-08-05T02:57:09.744Z,13
2022-08-05T02:59:14.550Z,13
2022-08-05T03:00:19.086Z,13
2022-08-05T03:01:21.441Z,13
2022-08-05T03:02:28.300Z,13
2022-08-05T03:03:33.993Z,13
2022-08-05T03:05:17.163Z,14
2022-08-05T03:08:07.256Z,14
2022-08-05T03:09:27.024Z,14
2022-08-05T03:11:41.257Z,14
2022-08-05T03:14:04.134Z,14
2022-08-05T03:15:09.546Z,13
2022-08-05T03:16:17.571Z,13
2022-08-05T03:17:25.266Z,13
2022-08-05T03:18:29.936Z,13
2022-08-05T03:19:33.366Z,14
2022-08-05T03:20:37.438Z,14
2022-08-05T03:21:55.811Z,13
2022-08-05T03:23:01.504Z,12
2022-08-05T03:24:10.200Z,12
2022-08-05T03:25:32.353Z,13
2022-08-05T03:27:39.468Z,15
2022-08-05T03:29:02.416Z,15
2022-08-05T03:30:19.100Z,15
2022-08-05T03:31:55.511Z,15
2022-08-05T03:33:01.548Z,15
2022-08-05T03:34:03.743Z,15
2022-08-05T03:35:05.607Z,15
2022-08-05T03:36:11.896Z,14
2022-08-05T03:37:15.220Z,14
2022-08-05T03:38:16.557Z,14
2022-08-05T03:39:47.308Z,14
2022-08-05T03:41:12.812Z,15
2022-08-05T03:42:14.750Z,15
2022-08-05T03:43:59.364Z,16
2022-08-05T03:45:22.937Z,16
2022-08-05T03:46:29.896Z,15
2022-08-05T03:47:35.087Z,15
2022-08-05T03:48:42.677Z,14
2022-08-05T03:49:51.026Z,14
2022-08-05T03:50:53.958Z,15
2022-08-05T03:57:01.377Z,14
2022-08-05T03:58:20.268Z,14
2022-08-05T03:59:46.638Z,14
2022-08-05T04:00:56.858Z,14
2022-08-05T04:02:01.020Z,14
2022-08-05T04:03:06.477Z,13
2022-08-05T04:04:29.778Z,14
2022-08-05T04:05:33.504Z,13
2022-08-05T04:06:47.685Z,13
2022-08-05T04:07:57.671Z,14
2022-08-05T04:09:00.988Z,13
2022-08-05T04:10:06.629Z,13
2022-08-05T04:11:17.705Z,12
2022-08-05T04:12:53.565Z,12
2022-08-05T04:13:59.807Z,12
2022-08-05T04:15:02.203Z,12
2022-08-05T04:16:15.685Z,12
2022-08-05T04:17:56.018Z,12
2022-08-05T04:19:02.759Z,12
2022-08-05T04:20:14.281Z,13
2022-08-05T04:22:05.638Z,13
2022-08-05T04:23:57.096Z,12
2022-08-05T04:25:24.312Z,13
2022-08-05T04:27:04.851Z,14
2022-08-05T04:28:11.091Z,14
2022-08-05T04:29:17.809Z,15
2022-08-05T04:30:20.470Z,15
2022-08-05T04:31:22.180Z,16
2022-08-05T04:32:40.147Z,16
2022-08-05T04:33:55.173Z,16
2022-08-05T04:36:09.348Z,17
2022-08-05T04:38:01.896Z,18
2022-08-05T04:39:08.983Z,20
2022-08-05T04:40:14.120Z,21
2022-08-05T04:41:21.088Z,21
2022-08-05T04:42:41.577Z,21
2022-08-05T04:43:46.746Z,20
2022-08-05T04:44:55.844Z,19
2022-08-05T04:46:02.998Z,19
2022-08-05T04:47:09.199Z,19
2022-08-05T04:48:27.751Z,18
2022-08-05T04:49:38.221Z,19
2022-08-05T04:51:12.678Z,19
2022-08-05T04:52:15.065Z,19
2022-08-05T04:53:16.195Z,19
2022-08-05T04:54:17.182Z,19
2022-08-05T04:55:21.128Z,19
2022-08-05T04:57:38.093Z,18
2022-08-05T04:58:56.111Z,17
2022-08-05T04:59:58.426Z,17
2022-08-05T05:00:59.957Z,17
2022-08-05T05:02:08.455Z,17
2022-08-05T05:03:45.956Z,18
2022-08-05T05:04:47.968Z,18
2022-08-05T05:06:36.317Z,18
2022-08-05T05:08:01.039Z,18
2022-08-05T05:09:05.472Z,18
2022-08-05T05:10:08.020Z,18
2022-08-05T05:11:09.252Z,19
2022-08-05T05:12:16.787Z,20
2022-08-05T05:13:17.773Z,20
2022-08-05T05:14:27.595Z,20
2022-08-05T05:15:57.717Z,20
2022-08-05T05:17:09.169Z,20
2022-08-05T05:18:10.723Z,19
2022-08-05T05:19:18.050Z,18
2022-08-05T05:20:48.233Z,18
2022-08-05T05:21:55.471Z,17
2022-08-05T05:23:24.444Z,17
2022-08-05T05:24:32.795Z,16
2022-08-05T05:26:18.131Z,16
2022-08-05T05:27:19.160Z,15
2022-08-05T05:28:54.063Z,15
2022-08-05T05:30:04.742Z,16
2022-08-05T05:32:34.451Z,16
2022-08-05T05:33:43.403Z,16
2022-08-05T05:35:03.772Z,15
2022-08-05T05:36:09.140Z,14
2022-08-05T05:37:17.507Z,14
2022-08-05T05:38:22.296Z,14
2022-08-05T05:39:31.649Z,15
2022-08-05T05:40:38.183Z,14
2022-08-05T05:41:55.488Z,14
2022-08-05T05:43:00.858Z,14
2022-08-05T05:44:03.750Z,13
2022-08-05T05:45:48.179Z,13
2022-08-05T05:46:49.515Z,14
2022-08-05T05:48:05.188Z,13
2022-08-05T05:49:22.739Z,13
2022-08-05T05:50:24.635Z,13
2022-08-05T05:51:28.269Z,13
2022-08-05T05:52:51.262Z,12
2022-08-05T05:53:54.777Z,12
2022-08-05T05:55:01.300Z,12
2022-08-05T05:56:15.067Z,12
2022-08-05T05:58:54.226Z,13
2022-08-05T06:00:07.999Z,13
2022-08-05T06:01:15.252Z,12
2022-08-05T06:02:16.875Z,13
2022-08-05T06:03:40.358Z,12
2022-08-05T06:05:10.676Z,12
2022-08-05T06:06:22.386Z,13
2022-08-05T06:07:41.405Z,12
2022-08-05T06:09:04.500Z,13
2022-08-05T06:10:17.896Z,13
2022-08-05T06:11:23.846Z,13
2022-08-05T06:12:27.102Z,14
2022-08-05T06:13:29.424Z,14
2022-08-05T06:14:56.221Z,14
2022-08-05T06:16:27.678Z,14
2022-08-05T06:17:52.531Z,14
2022-08-05T06:18:56.098Z,13
2022-08-05T06:20:33.323Z,13
2022-08-05T06:21:38.485Z,13
2022-08-05T06:22:54.894Z,13
2022-08-05T06:24:04.525Z,13
2022-08-05T06:25:24.191Z,13
2022-08-05T06:28:09.583Z,13
2022-08-05T06:29:45.572Z,13
2022-08-05T06:31:30.381Z,13
2022-08-05T06:32:35.911Z,14
2022-08-05T06:34:06.595Z,14
2022-08-05T06:35:21.955Z,14
2022-08-05T06:37:16.489Z,14
2022-08-05T06:39:12.684Z,13
2022-08-05T06:40:17.824Z,13
2022-08-05T06:41:34.726Z,12
2022-08-05T06:42:45.084Z,11
2022-08-05T06:43:59.327Z,11
2022-08-05T06:45:05.390Z,12
2022-08-05T06:47:10.250Z,12
2022-08-05T06:50:08.953Z,13
2022-08-05T06:51:22.757Z,13
2022-08-05T06:52:42.999Z,14
2022-08-05T06:54:29.962Z,15
2022-08-05T06:55:31.440Z,15
2022-08-05T06:56:42.272Z,16
2022-08-05T06:59:42.122Z,16
2022-08-05T07:01:00.874Z,15
2022-08-05T07:02:02.504Z,14
2022-08-05T07:03:04.022Z,14
2022-08-05T07:04:13.877Z,14
2022-08-05T07:05:22.296Z,13
2022-08-05T07:06:42.649Z,13
2022-08-05T07:07:43.941Z,13
2022-08-05T07:08:52.094Z,12
2022-08-05T07:09:59.272Z,12
2022-08-05T07:11:08.157Z,13
2022-08-05T07:12:25.931Z,13
2022-08-05T07:13:34.155Z,13
2022-08-05T07:15:01.493Z,13
2022-08-05T07:16:09.101Z,12
2022-08-05T07:20:10.901Z,12
2022-08-05T07:21:59.636Z,12
2022-08-05T07:23:08.154Z,12
2022-08-05T07:24:31.264Z,13
2022-08-05T07:25:56.828Z,13
2022-08-05T07:26:58.765Z,14
2022-08-05T07:28:11.957Z,14
2022-08-05T07:29:19.848Z,15
2022-08-05T07:31:40.537Z,15
2022-08-05T07:32:57.380Z,14
2022-08-05T07:33:59.987Z,14
2022-08-05T07:35:56.207Z,15
2022-08-05T07:37:22.690Z,15
2022-08-05T07:38:54.847Z,15
2022-08-05T07:40:04.975Z,15
2022-08-05T07:42:09.972Z,14
2022-08-05T07:43:37.213Z,14
2022-08-05T07:44:38.517Z,14
2022-08-05T07:45:57.897Z,13
2022-08-05T07:47:02.789Z,13
2022-08-05T07:48:15.461Z,12
2022-08-05T07:50:08.615Z,13
2022-08-05T07:51:23.177Z,13
2022-08-05T07:52:56.433Z,13
2022-08-05T07:53:58.595Z,14
2022-08-05T07:55:03.845Z,13
2022-08-05T07:59:04.303Z,14
2022-08-05T08:00:12.445Z,15
2022-08-05T08:01:15.203Z,14
2022-08-05T08:02:26.418Z,14
2022-08-05T08:04:23.038Z,14
2022-08-05T08:05:40.618Z,13
2022-08-05T08:06:51.311Z,13
2022-08-05T08:07:59.407Z,13
2022-08-05T08:09:03.163Z,12
2022-08-05T08:10:12.019Z,12
2022-08-05T08:11:27.550Z,12
2022-08-05T08:14:00.948Z,12
2022-08-05T08:15:04.574Z,12
2022-08-05T08:16:34.290Z,12
2022-08-05T08:17:56.923Z,12
2022-08-05T08:20:11.016Z,12
2022-08-05T08:22:18.570Z,11
2022-08-05T08:24:00.662Z,11
2022-08-05T08:25:26.656Z,11
2022-08-05T08:27:08.941Z,11
2022-08-05T08:28:18.114Z,12
2022-08-05T08:31:33.059Z,11
2022-08-05T08:32:46.783Z,11
2022-08-05T08:33:55.165Z,10
2022-08-05T08:35:02.049Z,10
2022-08-05T08:36:47.420Z,10
2022-08-05T08:38:07.027Z,11
2022-08-05T08:39:14.911Z,10
2022-08-05T08:40:21.319Z,10
2022-08-05T08:41:25.904Z,10
2022-08-05T08:45:17.257Z,11
2022-08-05T08:46:32.292Z,11
2022-08-05T08:47:47.896Z,12
2022-08-05T08:52:55.794Z,11
2022-08-05T08:53:58.554Z,11
2022-08-05T08:55:03.419Z,11
2022-08-05T08:57:11.100Z,11
2022-08-05T08:58:26.037Z,11
2022-08-05T08:59:51.758Z,11
2022-08-05T09:01:00.232Z,11
2022-08-05T09:02:16.781Z,11
2022-08-05T09:03:19.141Z,11
2022-08-05T09:04:22.301Z,11
2022-08-05T09:05:38.092Z,11
2022-08-05T09:07:39.582Z,11
2022-08-05T09:08:59.941Z,11
2022-08-05T09:10:02.316Z,11
2022-08-05T09:11:12.269Z,11
2022-08-05T09:13:06.441Z,11
2022-08-05T09:14:55.182Z,12
2022-08-05T09:16:14.589Z,11
2022-08-05T09:17:40.379Z,11
2022-08-05T09:18:55.625Z,11
2022-08-05T09:20:08.463Z,11
2022-08-05T09:21:11.600Z,11
2022-08-05T09:23:37.371Z,11
2022-08-05T09:24:45.125Z,11
2022-08-05T09:26:00.402Z,11
2022-08-05T09:27:10.002Z,11
2022-08-05T09:29:30.845Z,11
2022-08-05T09:30:51.733Z,11
2022-08-05T09:32:39.740Z,11
2022-08-05T09:33:54.344Z,11
2022-08-05T09:35:07.159Z,10
2022-08-05T09:36:11.954Z,11
2022-08-05T09:38:11.835Z,11
2022-08-05T09:39:41.720Z,11
2022-08-05T09:40:58.676Z,11
2022-08-05T09:42:04.302Z,10
2022-08-05T09:43:28.258Z,10
2022-08-05T09:44:50.785Z,11
2022-08-05T09:47:10.334Z,11
2022-08-05T09:48:21.993Z,11
2022-08-05T09:49:40.593Z,11
2022-08-05T09:51:14.760Z,10
2022-08-05T09:52:18.031Z,10
2022-08-05T09:57:20.710Z,10
2022-08-05T09:58:27.000Z,10
2022-08-05T09:59:34.751Z,10
2022-08-05T10:00:38.404Z,10
2022-08-05T10:01:45.481Z,10
2022-08-05T10:02:59.092Z,10
2022-08-05T10:04:03.211Z,10
2022-08-05T10:05:13.457Z,10
2022-08-05T10:06:17.374Z,10
2022-08-05T10:07:31.955Z,9
2022-08-05T10:10:04.518Z,9
2022-08-05T10:11:35.236Z,9
2022-08-05T10:12:38.407Z,9
2022-08-05T10:13:56.431Z,10
2022-08-05T10:15:05.265Z,10
2022-08-05T10:16:16.408Z,10
2022-08-05T10:17:36.977Z,10
2022-08-05T10:18:58.977Z,10
2022-08-05T10:20:13.069Z,9
2022-08-05T10:21:25.860Z,10
2022-08-05T10:22:48.846Z,10
2022-08-05T10:23:59.394Z,11
2022-08-05T10:25:14.210Z,11
2022-08-05T10:26:16.896Z,11
2022-08-05T10:27:17.914Z,11
2022-08-05T10:30:06.190Z,10
2022-08-05T10:34:09.541Z,10
2022-08-05T10:35:11.140Z,10
2022-08-05T10:36:13.603Z,10
2022-08-05T10:37:37.378Z,10
2022-08-05T10:38:59.814Z,10
2022-08-05T10:41:23.380Z,10
2022-08-05T10:42:33.328Z,10
2022-08-05T10:43:44.944Z,10
2022-08-05T10:44:49.984Z,11
2022-08-05T10:45:52.611Z,11
2022-08-05T10:47:26.406Z,11
2022-08-05T10:48:36.214Z,12
2022-08-05T10:50:32.788Z,12
2022-08-05T10:51:53.172Z,11
2022-08-05T10:53:11.550Z,11
2022-08-05T10:54:28.244Z,10
2022-08-05T10:56:03.971Z,9
2022-08-05T10:57:29.632Z,10
2022-08-05T10:58:51.404Z,10
2022-08-05T11:00:02.310Z,11
2022-08-05T11:01:28.203Z,11
2022-08-05T11:03:35.233Z,10
2022-08-05T11:04:42.311Z,10
2022-08-05T11:05:46.408Z,10
2022-08-05T11:07:04.257Z,10
2022-08-05T11:08:21.898Z,10
2022-08-05T11:09:45.675Z,11
2022-08-05T11:10:50.118Z,12
2022-08-05T11:12:17.965Z,12
2022-08-05T11:13:20.598Z,13
2022-08-05T11:14:37.234Z,13
2022-08-05T11:16:22.681Z,13
2022-08-05T11:20:11.740Z,13
2022-08-05T11:21:28.579Z,12
2022-08-05T11:23:02.223Z,11
2022-08-05T11:24:14.697Z,11
2022-08-05T11:26:03.909Z,11
2022-08-05T11:27:13.061Z,10
2022-08-05T11:28:17.025Z,10
2022-08-05T11:29:19.575Z,10
2022-08-05T11:30:26.126Z,10
2022-08-05T11:31:54.832Z,10
2022-08-05T11:33:04.515Z,11
2022-08-05T11:34:22.794Z,10
2022-08-05T11:35:34.454Z,11
2022-08-05T11:38:27.531Z,10
2022-08-05T11:39:55.143Z,11
2022-08-05T11:41:14.252Z,12
2022-08-05T11:43:18.844Z,12
2022-08-05T11:45:14.694Z,12
2022-08-05T11:47:48.207Z,12
2022-08-05T11:48:56.914Z,11
2022-08-05T11:50:01.822Z,11
2022-08-05T11:51:05.466Z,11
2022-08-05T11:52:53.247Z,11
2022-08-05T11:54:11.740Z,11
2022-08-05T11:55:36.372Z,10
2022-08-05T11:56:40.878Z,10
2022-08-05T11:58:09.060Z,10
2022-08-05T11:59:23.529Z,10
2022-08-05T12:00:28.786Z,10
2022-08-05T12:01:31.502Z,10
2022-08-05T12:02:34.280Z,10
2022-08-05T12:03:55.679Z,11
2022-08-05T12:04:59.096Z,11
2022-08-05T12:06:18.796Z,11
2022-08-05T12:08:03.850Z,10
2022-08-05T12:09:21.104Z,9
2022-08-05T12:10:54.739Z,9
2022-08-05T12:11:58.055Z,10
2022-08-05T12:13:14.068Z,10
2022-08-05T12:14:51.340Z,10
2022-08-05T12:15:57.876Z,10
2022-08-05T12:17:00.299Z,10
2022-08-05T12:20:17.429Z,10
2022-08-05T12:21:38.911Z,10
2022-08-05T12:22:40.721Z,11
2022-08-05T12:23:52.512Z,11
2022-08-05T12:24:53.501Z,11
2022-08-05T12:25:56.524Z,11
2022-08-05T12:26:58.472Z,10
2022-08-05T12:28:33.700Z,10
2022-08-05T12:29:39.246Z,10
2022-08-05T12:30:53.660Z,10
2022-08-05T12:31:57.460Z,10
2022-08-05T12:33:27.159Z,10
2022-08-05T12:34:47.794Z,10
2022-08-05T12:35:51.858Z,10
2022-08-05T12:36:55.237Z,11
2022-08-05T12:37:58.083Z,11
2022-08-05T12:38:59.393Z,11
2022-08-05T12:40:03.083Z,11
2022-08-05T12:41:34.268Z,11
2022-08-05T12:42:45.041Z,11
2022-08-05T12:43:50.146Z,11
2022-08-05T12:44:51.386Z,10
2022-08-05T12:45:52.665Z,10
2022-08-05T12:46:54.438Z,10
2022-08-05T12:48:01.872Z,11
2022-08-05T12:50:01.939Z,10
2022-08-05T12:51:22.020Z,11
2022-08-05T12:53:43.823Z,11
2022-08-05T12:55:00.565Z,11
2022-08-05T12:56:03.729Z,11
2022-08-05T12:58:39.389Z,11
2022-08-05T13:02:04.577Z,10
2022-08-05T13:03:14.293Z,11
2022-08-05T13:04:21.126Z,12
2022-08-05T13:05:34.060Z,12
2022-08-05T13:06:44.862Z,12
2022-08-05T13:07:57.957Z,11
2022-08-05T13:09:09.994Z,11
2022-08-05T13:10:30.261Z,11
2022-08-05T13:12:02.463Z,11
2022-08-05T13:14:04.342Z,11
2022-08-05T13:15:16.505Z,11
2022-08-05T13:16:51.611Z,12
2022-08-05T13:17:59.260Z,13
2022-08-05T13:19:03.631Z,13
2022-08-05T13:20:05.194Z,14
2022-08-05T13:21:12.372Z,14
2022-08-05T13:22:14.925Z,14
2022-08-05T13:23:31.969Z,14
2022-08-05T13:24:57.306Z,14
2022-08-05T13:26:59.204Z,13
2022-08-05T13:28:03.569Z,12
2022-08-05T13:29:05.489Z,11
2022-08-05T13:30:33.230Z,11
2022-08-05T13:32:03.623Z,12
2022-08-05T13:33:10.487Z,12
2022-08-05T13:35:31.597Z,13
2022-08-05T13:36:53.274Z,13
2022-08-05T13:37:55.452Z,12
2022-08-05T13:39:08.574Z,12
2022-08-05T13:41:54.545Z,11
2022-08-05T13:42:57.614Z,12
2022-08-05T13:43:58.905Z,12
2022-08-05T13:45:02.309Z,13
2022-08-05T13:46:06.623Z,13
2022-08-05T13:47:34.590Z,13
2022-08-05T13:50:12.461Z,13
2022-08-05T13:51:19.359Z,13
2022-08-05T13:52:28.999Z,14
2022-08-05T13:53:47.612Z,13
2022-08-05T13:54:53.208Z,12
2022-08-05T13:55:58.798Z,11
2022-08-05T13:57:18.321Z,11
2022-08-05T13:58:22.355Z,11
2022-08-05T13:59:33.761Z,11
2022-08-05T14:01:04.947Z,11
2022-08-05T14:02:08.838Z,11
2022-08-05T14:03:33.799Z,11
2022-08-05T14:04:51.789Z,11
2022-08-05T14:06:05.028Z,11
2022-08-05T14:07:56.809Z,10
2022-08-05T14:09:42.903Z,11
2022-08-05T14:10:48.148Z,11
2022-08-05T14:12:00.588Z,10
2022-08-05T14:13:33.959Z,11
2022-08-05T14:14:36.389Z,10
2022-08-05T14:16:04.253Z,10
2022-08-05T14:17:20.123Z,10
2022-08-05T14:18:23.145Z,10
2022-08-05T14:19:25.671Z,9
2022-08-05T14:20:29.857Z,9
2022-08-05T14:22:07.024Z,9
2022-08-05T14:23:13.137Z,9
2022-08-05T14:24:37.594Z,10
2022-08-05T14:25:50.283Z,10
2022-08-05T14:27:17.907Z,10
2022-08-05T14:28:26.097Z,10
2022-08-05T14:29:31.366Z,10
2022-08-05T14:30:34.841Z,10
2022-08-05T14:31:54.826Z,10
2022-08-05T14:33:32.726Z,10
2022-08-05T14:35:03.178Z,10
2022-08-05T14:36:12.221Z,11
2022-08-05T14:37:13.486Z,11
2022-08-05T14:38:27.939Z,11
2022-08-05T14:39:48.406Z,10
2022-08-05T14:41:00.936Z,10
2022-08-05T14:42:19.765Z,10
2022-08-05T14:43:54.125Z,10
2022-08-05T14:45:23.728Z,10
2022-08-05T14:46:28.585Z,10
2022-08-05T14:47:58.562Z,10
2022-08-05T14:49:56.592Z,10
2022-08-05T14:51:21.139Z,10
2022-08-05T14:52:43.124Z,10
2022-08-05T14:54:25.863Z,10
2022-08-05T14:55:54.382Z,10
2022-08-05T14:56:56.396Z,11
2022-08-05T14:57:58.474Z,11
2022-08-05T14:59:15.344Z,11
2022-08-05T15:00:16.682Z,12
2022-08-05T15:01:47.396Z,12
2022-08-05T15:02:54.466Z,12
2022-08-05T15:04:00.174Z,12
2022-08-05T15:05:08.477Z,12
2022-08-05T15:06:15.986Z,11
2022-08-05T15:08:05.389Z,11
2022-08-05T15:10:04.660Z,12
2022-08-05T15:11:12.606Z,11
2022-08-05T15:12:17.263Z,12
2022-08-05T15:13:19.459Z,12
2022-08-05T15:14:53.367Z,11
2022-08-05T15:15:58.799Z,12
2022-08-05T15:17:00.867Z,13
2022-08-05T15:18:47.485Z,13
2022-08-05T15:19:53.603Z,14
2022-08-05T15:21:07.235Z,13
2022-08-05T15:22:12.124Z,12
2022-08-05T15:23:27.610Z,11
2022-08-05T15:24:30.558Z,11
2022-08-05T15:25:41.594Z,11
2022-08-05T15:27:04.182Z,11
2022-08-05T15:28:13.264Z,11
2022-08-05T15:29:17.244Z,11
2022-08-05T15:30:43.240Z,11
2022-08-05T15:31:54.816Z,11
2022-08-05T15:33:06.170Z,12
2022-08-05T15:34:19.594Z,12
2022-08-05T15:35:35.909Z,11
2022-08-05T15:36:50.337Z,11
2022-08-05T15:38:08.879Z,11
2022-08-05T15:40:42.455Z,11
2022-08-05T15:43:09.504Z,11
2022-08-05T15:44:23.925Z,12
2022-08-05T15:45:38.724Z,12
2022-08-05T15:46:40.321Z,12
2022-08-05T15:47:42.598Z,12
2022-08-05T15:48:52.957Z,12
2022-08-05T15:50:59.863Z,12
2022-08-05T15:52:10.429Z,11
2022-08-05T15:54:08.107Z,10
2022-08-05T15:55:16.634Z,10
2022-08-05T15:57:03.542Z,10
2022-08-05T15:58:16.325Z,11
2022-08-05T15:59:23.940Z,11
2022-08-05T16:00:43.209Z,11
2022-08-05T16:02:30.149Z,11
2022-08-05T16:03:35.656Z,11
2022-08-05T16:04:42.571Z,11
2022-08-05T16:05:49.532Z,11
2022-08-05T16:06:57.797Z,11
2022-08-05T16:08:00.245Z,12
2022-08-05T16:09:02.123Z,12
2022-08-05T16:10:03.693Z,13
2022-08-05T16:11:12.540Z,12
2022-08-05T16:12:16.103Z,11
2022-08-05T16:13:23.396Z,11
2022-08-05T16:14:36.506Z,11
2022-08-05T16:15:39.430Z,10
2022-08-05T16:16:47.808Z,9
2022-08-05T16:17:57.334Z,9
2022-08-05T16:19:10.070Z,9
2022-08-05T16:21:13.768Z,9
2022-08-05T16:22:15.431Z,10
2022-08-05T16:23:16.820Z,10
2022-08-05T16:24:39.458Z,10
2022-08-05T16:25:54.823Z,10
2022-08-05T16:26:58.000Z,10
2022-08-05T16:28:00.580Z,10
2022-08-05T16:29:15.678Z,10
2022-08-05T16:30:26.022Z,10
2022-08-05T16:31:56.543Z,9
2022-08-05T16:33:02.125Z,9
2022-08-05T16:34:03.804Z,9
2022-08-05T16:35:10.762Z,9
2022-08-05T16:36:33.760Z,10
2022-08-05T16:38:03.894Z,10
2022-08-05T16:40:05.419Z,10
2022-08-05T16:42:13.473Z,10
2022-08-05T16:43:31.436Z,10
2022-08-05T16:44:33.157Z,11
2022-08-05T16:46:05.694Z,12
2022-08-05T16:47:29.149Z,11
2022-08-05T16:49:03.785Z,11
2022-08-05T16:50:10.461Z,12
2022-08-05T16:51:13.563Z,11
2022-08-05T16:52:16.884Z,11
2022-08-05T16:53:31.931Z,12
2022-08-05T16:55:46.310Z,13
2022-08-05T16:56:51.887Z,14
2022-08-05T16:58:00.603Z,15
2022-08-05T16:59:10.310Z,16
2022-08-05T17:00:26.348Z,17
2022-08-05T17:01:53.301Z,18
2022-08-05T17:03:01.359Z,20
2022-08-05T17:04:21.850Z,20
2022-08-05T17:05:29.348Z,20
2022-08-05T17:06:38.427Z,19
2022-08-05T17:07:54.781Z,18
2022-08-05T17:08:58.235Z,17
2022-08-05T17:10:00.676Z,16
2022-08-05T17:11:04.754Z,16
2022-08-05T17:12:50.783Z,16
2022-08-05T17:14:00.350Z,14
2022-08-05T17:15:48.175Z,14
2022-08-05T17:17:42.195Z,13
2022-08-05T17:18:44.572Z,12
2022-08-05T17:19:53.919Z,12
2022-08-05T17:21:03.425Z,12
2022-08-05T17:22:06.235Z,13
2022-08-05T17:24:02.999Z,13
2022-08-05T17:26:08.503Z,13
2022-08-05T17:27:21.407Z,14
2022-08-05T17:28:33.771Z,15
2022-08-05T17:29:42.554Z,15
2022-08-05T17:31:08.338Z,15
2022-08-05T17:33:01.498Z,14
2022-08-05T17:34:17.922Z,14
2022-08-05T17:36:07.223Z,14
2022-08-05T17:37:48.335Z,14
2022-08-05T17:38:52.342Z,14
2022-08-05T17:40:35.188Z,13
2022-08-05T17:42:16.964Z,13
2022-08-05T17:43:54.242Z,12
2022-08-05T17:45:00.593Z,11
2022-08-05T17:46:38.825Z,11
2022-08-05T17:47:51.520Z,11
2022-08-05T17:48:57.168Z,11
2022-08-05T17:50:00.677Z,13
2022-08-05T17:51:12.769Z,14
2022-08-05T17:52:23.060Z,14
2022-08-05T17:53:29.883Z,15
2022-08-05T17:54:40.115Z,15
2022-08-05T17:55:41.145Z,15
2022-08-05T17:56:44.795Z,15
2022-08-05T17:57:52.531Z,14
2022-08-05T17:58:54.349Z,13
2022-08-05T18:00:03.905Z,13
2022-08-05T18:01:09.574Z,13
2022-08-05T18:02:12.446Z,13
2022-08-05T18:03:39.606Z,14
2022-08-05T18:05:35.284Z,13
2022-08-05T18:06:38.820Z,13
2022-08-05T18:07:45.973Z,13
2022-08-05T18:08:52.280Z,12
2022-08-05T18:09:59.375Z,13
2022-08-05T18:11:23.549Z,13
2022-08-05T18:12:36.782Z,14
2022-08-05T18:13:43.905Z,15
2022-08-05T18:14:45.285Z,15
2022-08-05T18:15:49.294Z,15
2022-08-05T18:16:51.981Z,15
2022-08-05T18:17:58.533Z,15
2022-08-05T18:19:13.292Z,15
2022-08-05T18:20:15.102Z,15
2022-08-05T18:21:19.817Z,15
2022-08-05T18:23:18.864Z,15
2022-08-05T18:24:46.052Z,15
2022-08-05T18:25:51.340Z,15
2022-08-05T18:27:00.628Z,14
2022-08-05T18:28:04.721Z,13
2022-08-05T18:29:10.276Z,14
2022-08-05T18:30:40.470Z,14
2022-08-05T18:31:42.874Z,15
2022-08-05T18:32:53.228Z,15
2022-08-05T18:34:02.315Z,15
2022-08-05T18:35:05.979Z,15
2022-08-05T18:36:15.280Z,15
2022-08-05T18:37:33.835Z,15
2022-08-05T18:38:42.859Z,15
2022-08-05T18:40:31.899Z,16
2022-08-05T18:43:21.949Z,16
2022-08-05T18:44:25.816Z,17
2022-08-05T18:45:57.672Z,17
2022-08-05T18:47:00.835Z,18
2022-08-05T18:48:03.523Z,18
2022-08-05T18:49:16.620Z,18
2022-08-05T18:50:20.603Z,18
2022-08-05T18:52:03.855Z,18
2022-08-05T18:53:19.336Z,18
2022-08-05T18:54:54.502Z,17
2022-08-05T18:55:57.406Z,17
2022-08-05T18:57:08.100Z,17
2022-08-05T18:58:17.833Z,17
2022-08-05T18:59:42.281Z,17
2022-08-05T19:01:33.085Z,16
2022-08-05T19:03:04.680Z,15
2022-08-05T19:04:13.215Z,15
2022-08-05T19:06:06.856Z,15
2022-08-05T19:07:46.921Z,16
2022-08-05T19:08:51.199Z,17
2022-08-05T19:09:54.749Z,17
2022-08-05T19:10:59.108Z,17
2022-08-05T19:12:13.293Z,15
2022-08-05T19:13:17.713Z,15
2022-08-05T19:14:37.597Z,15
2022-08-05T19:16:04.380Z,15
2022-08-05T19:17:59.646Z,15
2022-08-05T19:19:23.803Z,15
2022-08-05T19:20:25.897Z,16
2022-08-05T19:21:34.558Z,16
2022-08-05T19:22:37.054Z,17